createdAt,value
2022-09-23T00:00:37.400Z,9.39
2022-09-23T00:03:04.579Z,9.37
2022-09-23T00:05:31.586Z,9.37
2022-09-23T00:07:58.241Z,9.35
2022-09-23T00:10:27.138Z,9.33
2022-09-23T00:12:54.986Z,9.31
2022-09-23T00:15:21.722Z,9.31
2022-09-23T00:17:48.230Z,9.25
2022-09-23T00:20:14.771Z,9.27
2022-09-23T00:22:41.489Z,9.29
2022-09-23T00:25:09.388Z,9.29
2022-09-23T00:27:36.605Z,9.30
2022-09-23T00:30:05.209Z,9.30
2022-09-23T00:32:31.985Z,9.31
2022-09-23T00:34:58.499Z,9.33
2022-09-23T00:37:25.051Z,9.32
2022-09-23T00:39:51.629Z,9.31
2022-09-23T00:42:20.669Z,9.32
2022-09-23T00:44:57.546Z,9.34
2022-09-23T00:47:24.655Z,9.35
2022-09-23T00:49:56.450Z,9.35
2022-09-23T00:52:24.041Z,9.35
2022-09-23T00:54:51.891Z,9.34
2022-09-23T00:57:20.246Z,9.32
2022-09-23T00:59:48.188Z,9.32
2022-09-23T01:02:15.374Z,9.33
2022-09-23T01:04:42.294Z,9.30
2022-09-23T01:07:08.860Z,9.28
2022-09-23T01:09:35.811Z,9.26
2022-09-23T01:12:05.346Z,9.26
2022-09-23T01:15:01.651Z,9.24
2022-09-23T01:17:33.858Z,9.22
2022-09-23T01:20:16.430Z,9.17
2022-09-23T01:22:42.897Z,9.16
2022-09-23T01:25:28.602Z,9.15
2022-09-23T01:27:55.038Z,9.14
2022-09-23T01:30:39.643Z,9.09
2022-09-23T01:33:32.489Z,9.08
2022-09-23T01:35:59.003Z,9.04
2022-09-23T01:38:45.208Z,8.97
2022-09-23T01:41:31.565Z,9.02
2022-09-23T01:44:04.889Z,8.99
2022-09-23T01:46:34.255Z,8.95
2022-09-23T01:49:22.245Z,8.91
2022-09-23T01:51:56.602Z,8.88
2022-09-23T01:54:31.507Z,8.86
2022-09-23T01:57:01.958Z,8.89
2022-09-23T01:59:35.867Z,8.88
2022-09-23T02:02:19.489Z,8.90
2022-09-23T02:04:57.008Z,8.90
2022-09-23T02:07:40.432Z,8.89
2022-09-23T02:10:13.985Z,8.89
2022-09-23T02:12:44.113Z,8.92
2022-09-23T02:15:14.126Z,8.89
2022-09-23T02:17:44.976Z,8.90
2022-09-23T02:20:14.985Z,8.88
2022-09-23T02:22:41.496Z,8.87
2022-09-23T02:25:09.707Z,8.87
2022-09-23T02:27:39.219Z,8.83
2022-09-23T02:30:13.570Z,8.81
2022-09-23T02:32:54.776Z,8.81
2022-09-23T02:35:33.072Z,8.83
2022-09-23T02:38:11.502Z,8.79
2022-09-23T02:40:42.122Z,8.77
2022-09-23T02:43:19.891Z,8.77
2022-09-23T02:45:46.983Z,8.74
2022-09-23T02:48:18.442Z,8.73
2022-09-23T02:50:47.796Z,8.70
2022-09-23T02:53:16.205Z,8.67
2022-09-23T02:55:42.950Z,8.63
2022-09-23T02:58:10.865Z,8.62
2022-09-23T03:00:43.451Z,8.59
2022-09-23T03:03:12.762Z,8.59
2022-09-23T03:05:44.419Z,8.60
2022-09-23T03:08:10.948Z,8.56
2022-09-23T03:10:43.369Z,8.57
2022-09-23T03:13:11.278Z,8.56
2022-09-23T03:15:40.977Z,8.54
2022-09-23T03:18:31.740Z,8.54
2022-09-23T03:21:08.585Z,8.53
2022-09-23T03:23:36.102Z,8.54
2022-09-23T03:26:06.093Z,8.56
2022-09-23T03:28:35.810Z,8.56
2022-09-23T03:31:02.908Z,8.55
2022-09-23T03:33:30.681Z,8.52
2022-09-23T03:36:19.032Z,8.50
2022-09-23T03:38:47.046Z,8.49
2022-09-23T03:41:16.890Z,8.47
2022-09-23T03:43:44.876Z,8.42
2022-09-23T03:46:12.634Z,8.41
2022-09-23T03:48:40.791Z,8.36
2022-09-23T03:51:24.103Z,8.32
2022-09-23T03:53:51.010Z,8.26
2022-09-23T03:56:17.620Z,8.23
2022-09-23T03:58:46.624Z,8.21
2022-09-23T04:01:14.828Z,8.17
2022-09-23T04:03:41.774Z,8.13
2022-09-23T04:06:08.485Z,8.09
2022-09-23T04:08:34.965Z,8.07
2022-09-23T04:11:02.034Z,8.04
2022-09-23T04:13:29.506Z,7.99
2022-09-23T04:15:56.121Z,7.96
2022-09-23T04:18:22.703Z,7.95
2022-09-23T04:20:49.771Z,7.94
2022-09-23T04:23:16.294Z,7.93
2022-09-23T04:25:46.920Z,7.91
2022-09-23T04:28:13.682Z,7.89
2022-09-23T04:30:42.434Z,7.90
2022-09-23T04:33:09.114Z,7.90
2022-09-23T04:35:39.933Z,7.85
2022-09-23T04:38:07.099Z,7.85
2022-09-23T04:40:33.694Z,7.82
2022-09-23T04:43:01.490Z,7.78
2022-09-23T04:45:28.038Z,7.75
2022-09-23T04:47:54.605Z,7.72
2022-09-23T04:50:21.247Z,7.70
2022-09-23T04:52:47.811Z,7.68
2022-09-23T04:55:14.385Z,7.64
2022-09-23T04:57:42.102Z,7.62
2022-09-23T05:00:09.133Z,7.61
2022-09-23T05:02:36.771Z,7.63
2022-09-23T05:05:04.236Z,7.61
2022-09-23T05:07:30.738Z,7.61
2022-09-23T05:09:57.713Z,7.59
2022-09-23T05:12:25.643Z,7.60
2022-09-23T05:14:52.269Z,7.57
2022-09-23T05:17:18.976Z,7.55
2022-09-23T05:19:45.614Z,7.52
2022-09-23T05:22:12.152Z,7.50
2022-09-23T05:24:38.648Z,7.49
2022-09-23T05:27:07.307Z,7.49
2022-09-23T05:29:34.954Z,7.51
2022-09-23T05:32:01.788Z,7.51
2022-09-23T05:34:28.460Z,7.51
2022-09-23T05:36:55.071Z,7.48
2022-09-23T05:39:21.681Z,7.54
2022-09-23T05:41:49.110Z,7.55
2022-09-23T05:44:15.717Z,7.58
2022-09-23T05:46:42.315Z,7.56
2022-09-23T05:49:09.477Z,7.57
2022-09-23T05:51:36.336Z,7.59
2022-09-23T05:54:04.393Z,7.58
2022-09-23T05:56:31.738Z,7.59
2022-09-23T05:58:59.342Z,7.63
2022-09-23T06:01:27.770Z,7.66
2022-09-23T06:03:55.493Z,7.67
2022-09-23T06:06:39.080Z,7.72
2022-09-23T06:09:07.156Z,7.72
2022-09-23T06:11:34.759Z,7.74
2022-09-23T06:14:02.536Z,7.74
2022-09-23T06:16:33.346Z,7.77
2022-09-23T06:19:05.845Z,7.78
2022-09-23T06:21:34.279Z,7.81
2022-09-23T06:24:00.855Z,7.83
2022-09-23T06:26:28.488Z,7.82
2022-09-23T06:28:55.014Z,7.84
2022-09-23T06:31:21.535Z,7.90
2022-09-23T06:33:50.254Z,7.86
2022-09-23T06:36:34.230Z,7.97
2022-09-23T06:39:03.905Z,8.04
2022-09-23T06:41:30.628Z,8.09
2022-09-23T06:43:57.162Z,8.14
2022-09-23T06:46:23.734Z,8.21
2022-09-23T06:48:51.190Z,8.27
2022-09-23T06:51:21.782Z,8.36
2022-09-23T06:53:48.943Z,8.45
2022-09-23T06:56:16.786Z,8.50
2022-09-23T06:58:43.530Z,8.59
2022-09-23T07:01:17.244Z,8.69
2022-09-23T07:03:45.045Z,8.78
2022-09-23T07:06:11.860Z,8.94
2022-09-23T07:08:38.419Z,9.05
2022-09-23T07:11:06.098Z,9.17
2022-09-23T07:13:33.649Z,9.25
2022-09-23T07:16:02.147Z,9.47
2022-09-23T07:18:36.444Z,9.62
2022-09-23T07:21:15.800Z,9.74
2022-09-23T07:23:43.695Z,9.92
2022-09-23T07:26:10.909Z,9.97
2022-09-23T07:28:38.454Z,10.22
2022-09-23T07:31:26.163Z,10.34
2022-09-23T07:34:01.184Z,10.55
2022-09-23T07:36:29.025Z,10.70
2022-09-23T07:39:00.712Z,10.84
2022-09-23T07:41:28.955Z,11.06
2022-09-23T07:43:59.001Z,11.23
2022-09-23T07:46:28.263Z,11.41
2022-09-23T07:48:55.862Z,11.68
2022-09-23T07:51:26.731Z,11.92
2022-09-23T07:53:54.866Z,12.02
2022-09-23T07:56:25.166Z,12.14
2022-09-23T07:59:00.794Z,12.23
2022-09-23T08:01:33.911Z,12.41
2022-09-23T08:04:04.186Z,12.55
2022-09-23T08:06:30.750Z,12.70
2022-09-23T08:08:59.093Z,12.64
2022-09-23T08:11:26.796Z,12.86
2022-09-23T08:13:54.274Z,12.88
2022-09-23T08:16:22.232Z,13.01
2022-09-23T08:18:49.569Z,13.03
2022-09-23T08:21:22.950Z,13.10
2022-09-23T08:23:50.054Z,13.18
2022-09-23T08:26:21.517Z,13.31
2022-09-23T08:28:49.557Z,13.38
2022-09-23T08:31:16.569Z,13.55
2022-09-23T08:33:43.515Z,13.47
2022-09-23T08:36:10.476Z,13.65
2022-09-23T08:38:37.181Z,13.76
2022-09-23T08:41:25.462Z,13.87
2022-09-23T08:44:02.474Z,14.03
2022-09-23T08:46:46.630Z,14.20
2022-09-23T08:49:23.521Z,14.26
2022-09-23T08:51:54.938Z,14.41
2022-09-23T08:54:21.812Z,14.48
2022-09-23T08:56:52.421Z,14.53
2022-09-23T08:59:44.119Z,14.51
2022-09-23T09:02:21.854Z,14.57
2022-09-23T09:04:57.015Z,14.62
2022-09-23T09:07:36.331Z,14.77
2022-09-23T09:10:11.858Z,14.66
2022-09-23T09:12:46.429Z,14.83
2022-09-23T09:15:13.278Z,14.94
2022-09-23T09:18:07.706Z,15.01
2022-09-23T09:20:43.946Z,15.07
2022-09-23T09:23:33.999Z,15.20
2022-09-23T09:26:04.989Z,15.46
2022-09-23T09:28:59.110Z,15.60
2022-09-23T09:31:38.502Z,15.60
2022-09-23T09:34:16.899Z,15.69
2022-09-23T09:37:07.726Z,15.80
2022-09-23T09:39:36.405Z,16.02
2022-09-23T09:42:06.055Z,16.09
2022-09-23T09:44:55.558Z,16.17
2022-09-23T09:47:52.760Z,16.02
2022-09-23T09:50:42.258Z,16.29
2022-09-23T09:53:29.770Z,16.38
2022-09-23T09:56:05.563Z,16.52
2022-09-23T09:58:54.985Z,16.65
2022-09-23T10:01:28.138Z,16.81
2022-09-23T10:03:59.480Z,16.81
2022-09-23T10:06:29.662Z,17.00
2022-09-23T10:09:02.430Z,17.18
2022-09-23T10:11:30.329Z,17.11
2022-09-23T10:14:23.802Z,17.24
2022-09-23T10:17:05.555Z,17.22
2022-09-23T10:19:34.973Z,16.94
2022-09-23T10:22:09.214Z,17.28
2022-09-23T10:24:39.136Z,17.52
2022-09-23T10:27:12.037Z,17.55
2022-09-23T10:29:40.403Z,17.41
2022-09-23T10:32:36.423Z,17.44
2022-09-23T10:35:09.068Z,17.45
2022-09-23T10:37:48.472Z,17.41
2022-09-23T10:40:56.239Z,17.50
2022-09-23T10:43:57.943Z,17.54
2022-09-23T10:46:41.690Z,17.50
2022-09-23T10:49:20.446Z,17.35
2022-09-23T10:52:01.998Z,17.32
2022-09-23T10:54:40.631Z,17.31
2022-09-23T10:57:42.893Z,17.31
2022-09-23T11:00:18.841Z,17.29
2022-09-23T11:03:09.392Z,17.34
2022-09-23T11:06:14.281Z,17.22
2022-09-23T11:09:06.715Z,17.19
2022-09-23T11:11:36.285Z,17.31
2022-09-23T11:14:09.573Z,17.25
2022-09-23T11:17:01.120Z,17.39
2022-09-23T11:19:54.208Z,17.32
2022-09-23T11:22:38.793Z,17.61
2022-09-23T11:25:30.341Z,17.80
2022-09-23T11:28:20.902Z,18.01
2022-09-23T11:31:10.775Z,17.98
2022-09-23T11:33:43.358Z,18.13
2022-09-23T11:36:30.480Z,18.16
2022-09-23T11:39:01.342Z,18.28
2022-09-23T11:41:36.201Z,18.36
2022-09-23T11:44:28.431Z,18.37
2022-09-23T11:47:10.006Z,18.51
2022-09-23T11:49:50.154Z,18.26
2022-09-23T11:52:34.080Z,18.73
2022-09-23T11:55:21.937Z,19.09
2022-09-23T11:58:03.212Z,19.10
2022-09-23T12:00:36.740Z,19.47
2022-09-23T12:03:42.985Z,19.96
2022-09-23T12:06:19.396Z,20.22
2022-09-23T12:08:46.188Z,20.24
2022-09-23T12:11:42.820Z,20.22
2022-09-23T12:14:27.542Z,20.08
2022-09-23T12:17:12.892Z,19.82
2022-09-23T12:19:42.842Z,19.81
2022-09-23T12:22:18.647Z,19.92
2022-09-23T12:24:56.953Z,19.80
2022-09-23T12:27:32.560Z,19.80
2022-09-23T12:30:03.848Z,20.04
2022-09-23T12:32:31.587Z,20.03
2022-09-23T12:34:59.691Z,19.83
2022-09-23T12:37:34.182Z,19.50
2022-09-23T12:40:09.460Z,19.42
2022-09-23T12:42:43.752Z,19.20
2022-09-23T12:45:32.836Z,19.08
2022-09-23T12:48:18.224Z,18.85
2022-09-23T12:50:53.491Z,18.86
2022-09-23T12:53:35.191Z,18.86
2022-09-23T12:56:15.798Z,18.89
2022-09-23T12:58:42.376Z,18.84
2022-09-23T13:01:19.510Z,18.92
2022-09-23T13:04:11.527Z,18.91
2022-09-23T13:06:53.315Z,18.82
2022-09-23T13:09:28.796Z,18.88
2022-09-23T13:12:08.718Z,18.83
2022-09-23T13:14:36.513Z,18.61
2022-09-23T13:17:04.065Z,18.44
2022-09-23T13:19:36.599Z,18.69
2022-09-23T13:22:11.161Z,18.80
2022-09-23T13:24:54.495Z,18.75
2022-09-23T13:27:31.066Z,18.77
2022-09-23T13:30:08.026Z,18.79
2022-09-23T13:32:40.758Z,18.96
2022-09-23T13:35:13.709Z,18.96
2022-09-23T13:37:45.598Z,18.78
2022-09-23T13:40:28.385Z,18.81
2022-09-23T13:43:00.253Z,18.93
2022-09-23T13:45:28.406Z,19.01
2022-09-23T13:48:01.707Z,19.14
2022-09-23T13:50:34.677Z,19.39
2022-09-23T13:53:08.409Z,19.67
2022-09-23T13:55:40.138Z,19.98
2022-09-23T13:58:23.919Z,20.02
2022-09-23T14:00:51.810Z,20.02
2022-09-23T14:03:35.864Z,20.02
2022-09-23T14:06:11.394Z,19.84
2022-09-23T14:08:47.447Z,19.56
2022-09-23T14:11:17.124Z,19.55
2022-09-23T14:13:45.719Z,19.52
2022-09-23T14:16:18.239Z,19.55
2022-09-23T14:18:47.051Z,19.38
2022-09-23T14:21:33.919Z,19.24
2022-09-23T14:24:21.521Z,19.26
2022-09-23T14:27:08.502Z,19.24
2022-09-23T14:29:44.419Z,19.19
2022-09-23T14:32:21.396Z,19.00
2022-09-23T14:34:52.221Z,18.84
2022-09-23T14:37:37.792Z,18.48
2022-09-23T14:40:12.528Z,18.58
2022-09-23T14:42:42.989Z,18.56
2022-09-23T14:45:15.591Z,18.42
2022-09-23T14:47:58.645Z,18.48
2022-09-23T14:50:44.551Z,18.29
2022-09-23T14:53:20.657Z,18.38
2022-09-23T14:55:52.883Z,18.37
2022-09-23T14:58:23.992Z,18.47
2022-09-23T15:00:55.698Z,18.46
2022-09-23T15:03:22.652Z,18.53
2022-09-23T15:05:52.853Z,18.57
2022-09-23T15:08:26.736Z,18.34
2022-09-23T15:10:54.894Z,18.43
2022-09-23T15:13:27.251Z,18.44
2022-09-23T15:15:55.577Z,18.33
2022-09-23T15:18:28.980Z,18.30
2022-09-23T15:21:01.157Z,18.26
2022-09-23T15:23:48.985Z,18.21
2022-09-23T15:26:18.375Z,18.19
2022-09-23T15:28:46.659Z,18.20
2022-09-23T15:31:16.014Z,18.20
2022-09-23T15:33:50.186Z,18.11
2022-09-23T15:36:19.810Z,18.03
2022-09-23T15:38:47.559Z,17.93
2022-09-23T15:41:15.754Z,17.87
2022-09-23T15:43:42.491Z,17.84
2022-09-23T15:46:16.961Z,17.70
2022-09-23T15:48:57.822Z,17.73
2022-09-23T15:51:26.780Z,17.70
2022-09-23T15:53:57.788Z,17.68
2022-09-23T15:56:25.047Z,17.64
2022-09-23T15:58:51.814Z,17.56
2022-09-23T16:01:28.710Z,17.52
2022-09-23T16:03:55.864Z,17.44
2022-09-23T16:06:24.604Z,17.43
2022-09-23T16:08:52.340Z,17.27
2022-09-23T16:11:24.521Z,17.35
2022-09-23T16:13:51.497Z,17.34
2022-09-23T16:16:22.182Z,17.33
2022-09-23T16:18:51.499Z,17.21
2022-09-23T16:21:21.099Z,17.23
2022-09-23T16:23:49.997Z,17.22
2022-09-23T16:26:19.704Z,17.10
2022-09-23T16:28:48.335Z,17.13
2022-09-23T16:31:16.079Z,17.12
2022-09-23T16:33:43.926Z,17.07
2022-09-23T16:36:31.833Z,17.03
2022-09-23T16:39:00.319Z,16.96
2022-09-23T16:41:29.374Z,16.91
2022-09-23T16:43:56.455Z,16.88
2022-09-23T16:46:24.105Z,16.88
2022-09-23T16:48:53.041Z,16.80
2022-09-23T16:51:26.632Z,16.79
2022-09-23T16:53:55.510Z,16.73
2022-09-23T16:56:28.166Z,16.65
2022-09-23T16:58:56.097Z,16.64
2022-09-23T17:01:47.643Z,16.53
2022-09-23T17:04:16.592Z,16.48
2022-09-23T17:06:50.259Z,16.43
2022-09-23T17:09:19.027Z,16.38
2022-09-23T17:11:49.105Z,16.32
2022-09-23T17:14:16.287Z,16.31
2022-09-23T17:16:43.772Z,16.26
2022-09-23T17:19:12.192Z,16.24
2022-09-23T17:21:39.190Z,16.21
2022-09-23T17:24:06.267Z,16.19
2022-09-23T17:26:32.920Z,16.13
2022-09-23T17:29:02.123Z,16.11
2022-09-23T17:31:30.758Z,16.08
2022-09-23T17:33:57.601Z,16.05
2022-09-23T17:36:24.321Z,15.95
2022-09-23T17:38:54.154Z,15.88
2022-09-23T17:41:21.238Z,15.82
2022-09-23T17:43:48.482Z,15.79
2022-09-23T17:46:19.396Z,15.79
2022-09-23T17:48:46.731Z,15.73
2022-09-23T17:51:19.844Z,15.63
2022-09-23T17:53:48.860Z,15.60
2022-09-23T17:56:22.788Z,15.60
2022-09-23T17:58:50.213Z,15.56
2022-09-23T18:01:20.144Z,15.54
2022-09-23T18:03:47.497Z,15.48
2022-09-23T18:06:19.595Z,15.43
2022-09-23T18:08:49.248Z,15.47
2022-09-23T18:11:20.244Z,15.51
2022-09-23T18:13:52.967Z,15.53
2022-09-23T18:16:22.241Z,15.53
2022-09-23T18:18:58.457Z,15.55
2022-09-23T18:21:28.212Z,15.63
2022-09-23T18:23:59.811Z,15.65
2022-09-23T18:26:37.018Z,15.68
2022-09-23T18:29:05.027Z,15.69
2022-09-23T18:31:38.053Z,15.65
2022-09-23T18:34:12.641Z,15.66
2022-09-23T18:36:39.680Z,15.65
2022-09-23T18:39:06.995Z,15.69
2022-09-23T18:41:35.173Z,15.68
2022-09-23T18:44:02.178Z,15.59
2022-09-23T18:46:30.111Z,15.64
2022-09-23T18:49:15.877Z,15.57
2022-09-23T18:51:54.254Z,15.57
2022-09-23T18:54:25.606Z,15.51
2022-09-23T18:56:52.903Z,15.44
2022-09-23T18:59:24.691Z,15.36
2022-09-23T19:01:51.609Z,15.34
2022-09-23T19:04:20.614Z,15.22
2022-09-23T19:06:47.927Z,15.25
2022-09-23T19:09:15.595Z,15.21
2022-09-23T19:11:43.061Z,15.20
2022-09-23T19:14:11.727Z,15.18
2022-09-23T19:16:40.047Z,15.15
2022-09-23T19:19:07.051Z,15.14
2022-09-23T19:21:34.697Z,15.10
2022-09-23T19:24:06.657Z,15.08
2022-09-23T19:26:40.646Z,15.08
2022-09-23T19:29:13.002Z,15.08
2022-09-23T19:31:40.878Z,15.07
2022-09-23T19:34:16.333Z,15.04
2022-09-23T19:36:44.855Z,15.04
2022-09-23T19:39:18.890Z,14.98
2022-09-23T19:41:46.714Z,14.88
2022-09-23T19:44:14.226Z,14.94
2022-09-23T19:46:45.802Z,14.89
2022-09-23T19:49:13.666Z,14.80
2022-09-23T19:51:41.099Z,14.82
2022-09-23T19:54:09.421Z,14.70
2022-09-23T19:56:36.583Z,14.77
2022-09-23T19:59:06.010Z,14.76
2022-09-23T20:01:34.468Z,14.82
2022-09-23T20:04:01.512Z,14.84
2022-09-23T20:06:33.029Z,14.83
2022-09-23T20:09:03.554Z,14.83
2022-09-23T20:11:31.632Z,14.80
2022-09-23T20:14:04.493Z,14.76
2022-09-23T20:16:33.707Z,14.81
2022-09-23T20:19:01.359Z,14.80
2022-09-23T20:21:29.381Z,14.76
2022-09-23T20:23:57.419Z,14.80
2022-09-23T20:26:42.882Z,14.76
2022-09-23T20:29:10.811Z,14.79
2022-09-23T20:31:37.924Z,14.77
2022-09-23T20:34:07.153Z,14.76
2022-09-23T20:36:35.180Z,14.74
2022-09-23T20:39:06.072Z,14.69
2022-09-23T20:41:37.499Z,14.66
2022-09-23T20:44:07.762Z,14.64
2022-09-23T20:46:35.850Z,14.59
2022-09-23T20:49:03.794Z,14.52
2022-09-23T20:51:33.391Z,14.46
2022-09-23T20:54:00.690Z,14.37
2022-09-23T20:56:28.095Z,14.26
2022-09-23T20:58:59.508Z,14.25
2022-09-23T21:01:27.709Z,14.17
2022-09-23T21:03:56.023Z,14.06
2022-09-23T21:06:26.321Z,14.04
2022-09-23T21:08:54.708Z,13.99
2022-09-23T21:11:22.325Z,13.95
2022-09-23T21:13:52.486Z,13.95
2022-09-23T21:16:22.699Z,13.92
2022-09-23T21:18:51.689Z,13.83
2022-09-23T21:21:19.834Z,13.77
2022-09-23T21:23:50.607Z,13.76
2022-09-23T21:26:19.402Z,13.69
2022-09-23T21:28:49.028Z,13.55
2022-09-23T21:31:25.677Z,13.46
2022-09-23T21:33:59.063Z,13.39
2022-09-23T21:36:28.243Z,13.30
2022-09-23T21:38:59.100Z,13.32
2022-09-23T21:41:25.805Z,13.28
2022-09-23T21:43:52.491Z,13.24
2022-09-23T21:46:21.011Z,13.24
2022-09-23T21:48:53.705Z,13.23
2022-09-23T21:51:28.914Z,13.17
2022-09-23T21:53:57.981Z,13.20
2022-09-23T21:56:27.164Z,13.16
2022-09-23T21:58:55.200Z,13.13
2022-09-23T22:01:35.295Z,13.08
2022-09-23T22:04:09.315Z,13.10
2022-09-23T22:06:38.401Z,13.10
2022-09-23T22:09:09.062Z,13.00
2022-09-23T22:11:57.106Z,13.12
2022-09-23T22:14:27.532Z,13.11
2022-09-23T22:16:59.140Z,13.12
2022-09-23T22:19:27.905Z,13.14
2022-09-23T22:21:55.916Z,13.17
2022-09-23T22:24:22.881Z,13.18
2022-09-23T22:26:49.526Z,13.18
2022-09-23T22:29:35.323Z,13.18
2022-09-23T22:32:22.136Z,13.12
2022-09-23T22:34:51.453Z,13.10
2022-09-23T22:37:27.170Z,13.15
2022-09-23T22:39:54.480Z,13.16
2022-09-23T22:42:22.614Z,13.13
2022-09-23T22:44:50.669Z,13.09
2022-09-23T22:47:19.040Z,13.12
2022-09-23T22:49:49.403Z,13.16
2022-09-23T22:52:24.650Z,13.17
2022-09-23T22:54:52.388Z,13.20
2022-09-23T22:57:19.609Z,13.17
2022-09-23T22:59:48.328Z,13.11
2022-09-23T23:02:17.540Z,13.09
2022-09-23T23:04:46.700Z,13.10
2022-09-23T23:07:14.265Z,13.08
2022-09-23T23:09:41.515Z,13.05
2022-09-23T23:12:08.558Z,13.06
2022-09-23T23:14:37.040Z,12.97
2022-09-23T23:17:07.625Z,13.00
2022-09-23T23:19:37.267Z,12.99
2022-09-23T23:22:05.197Z,12.98
2022-09-23T23:24:32.466Z,12.97
2022-09-23T23:26:59.129Z,12.93
2022-09-23T23:29:25.948Z,12.99
2022-09-23T23:31:53.015Z,12.96
2022-09-23T23:34:21.098Z,12.98
2022-09-23T23:36:54.991Z,12.94
2022-09-23T23:39:26.377Z,12.92
2022-09-23T23:41:57.447Z,12.88
2022-09-23T23:44:25.963Z,12.88
2022-09-23T23:46:53.342Z,12.88
2022-09-23T23:49:20.108Z,12.86
2022-09-23T23:51:48.000Z,12.83
2022-09-23T23:54:15.574Z,12.84
2022-09-23T23:56:43.039Z,12.86
2022-09-23T23:59:09.700Z,12.86
